Time;durP1;ratioP1;P1;durP2;ratioP2;P2;SDS_P1;SDS_P2;PMS_P1;PMS_P2;Temp;Humidity;BMP_temperature;BMP_pressure;BME280_temperature;BME280_humidity;BME280_pressure;Samples;Min_cycle;Max_cycle;Signal;HPM_P1;HPM_P2
2022/09/25 20:04:10;;;;;;;7.07;2.45;;;;;;;;;;7337556;19;21763;-81
2022/09/25 20:06:35;;;;;;;8.55;2.92;;;;;;;;;;7359840;19;20022;-82
2022/09/25 20:09:01;;;;;;;8.57;2.50;;;;;;;;;;7334174;19;20615;-81
2022/09/25 20:11:27;;;;;;;8.60;2.72;;;;;;;;;;7358432;19;20003;-81
2022/09/25 20:13:52;;;;;;;8.75;2.25;;;;;;;;;;7386168;19;20506;-81
2022/09/25 20:16:19;;;;;;;12.18;2.40;;;;;;;;;;7378550;19;20006;-82
2022/09/25 20:18:49;;;;;;;12.23;2.55;;;;;;;;;;7341751;19;20041;-80
2022/09/25 20:21:16;;;;;;;6.57;2.20;;;;;;;;;;7377407;19;20094;-81
2022/09/25 20:23:41;;;;;;;7.28;2.28;;;;;;;;;;7369575;19;20007;-83
2022/09/25 20:26:08;;;;;;;8.60;2.30;;;;;;;;;;7378615;19;20010;-80
2022/09/25 20:28:34;;;;;;;10.60;2.63;;;;;;;;;;7379429;19;20018;-82
2022/09/25 20:31:03;;;;;;;7.72;1.95;;;;;;;;;;7391049;19;20021;-80
2022/09/25 20:33:29;;;;;;;9.35;2.70;;;;;;;;;;7374460;19;20011;-81
2022/09/25 20:35:54;;;;;;;10.48;2.80;;;;;;;;;;7354115;19;20010;-80
2022/09/25 20:38:20;;;;;;;8.70;2.40;;;;;;;;;;7350999;19;20120;-83
2022/09/25 20:40:45;;;;;;;9.90;2.35;;;;;;;;;;7358993;19;20014;-81
2022/09/25 20:43:10;;;;;;;7.53;2.77;;;;;;;;;;7322256;19;20013;-81
2022/09/25 20:45:35;;;;;;;7.07;2.53;;;;;;;;;;7345406;19;20809;-82
2022/09/25 20:48:01;;;;;;;9.87;2.90;;;;;;;;;;7366229;19;20259;-82
2022/09/25 20:50:26;;;;;;;7.78;2.70;;;;;;;;;;7353762;19;21166;-80
2022/09/25 20:52:51;;;;;;;8.07;2.87;;;;;;;;;;7361599;19;20018;-81
2022/09/25 20:55:17;;;;;;;11.47;2.80;;;;;;;;;;7357907;19;20611;-81
2022/09/25 20:57:42;;;;;;;7.65;3.08;;;;;;;;;;7365388;19;20264;-82
2022/09/25 21:00:08;;;;;;;6.90;2.63;;;;;;;;;;7368047;19;21004;-80
2022/09/25 21:02:33;;;;;;;6.70;2.58;;;;;;;;;;7366332;19;20696;-82
2022/09/25 21:04:58;;;;;;;7.68;2.50;;;;;;;;;;7325230;19;20822;-82
2022/09/25 21:07:24;;;;;;;7.77;2.70;;;;;;;;;;7357022;19;20023;-80
2022/09/25 21:09:49;;;;;;;8.52;2.70;;;;;;;;;;7364283;19;20286;-82
2022/09/25 21:12:14;;;;;;;9.15;3.38;;;;;;;;;;7364887;19;20022;-81
2022/09/25 21:14:40;;;;;;;11.77;2.90;;;;;;;;;;7364184;19;20765;-80
2022/09/25 21:17:06;;;;;;;9.88;2.92;;;;;;;;;;7357133;19;20010;-82
2022/09/25 21:19:31;;;;;;;10.43;3.30;;;;;;;;;;7363481;19;20006;-82
2022/09/25 21:21:56;;;;;;;9.43;2.55;;;;;;;;;;7356846;19;20459;-81
2022/09/25 21:24:21;;;;;;;5.53;2.40;;;;;;;;;;7353598;19;20033;-81
2022/09/25 21:26:47;;;;;;;10.20;2.92;;;;;;;;;;7358297;19;20003;-81
2022/09/25 21:29:14;;;;;;;7.10;2.75;;;;;;;;;;7361199;19;20017;-81
2022/09/25 21:31:40;;;;;;;9.15;3.30;;;;;;;;;;7358596;19;20019;-81
2022/09/25 21:34:08;;;;;;;5.20;2.40;;;;;;;;;;7354985;19;20521;-79
2022/09/25 21:36:34;;;;;;;10.88;3.33;;;;;;;;;;7359270;19;20002;-79
2022/09/25 21:38:59;;;;;;;8.95;3.08;;;;;;;;;;7359403;19;20017;-80
2022/09/25 21:41:25;;;;;;;8.75;3.05;;;;;;;;;;7363437;19;20007;-79
2022/09/25 21:43:54;;;;;;;18.88;7.40;;;;;;;;;;7359988;19;20014;-80
2022/09/25 21:46:19;;;;;;;15.40;6.38;;;;;;;;;;7319149;19;20027;-79
2022/09/25 21:48:49;;;;;;;14.93;5.95;;;;;;;;;;7353818;19;20708;-81
2022/09/25 21:51:14;;;;;;;15.38;7.60;;;;;;;;;;7348863;19;20149;-79
2022/09/25 21:53:40;;;;;;;15.35;7.07;;;;;;;;;;7359191;19;20009;-81
2022/09/25 21:56:06;;;;;;;16.13;6.97;;;;;;;;;;7359120;19;20113;-78
2022/09/25 21:58:32;;;;;;;16.98;6.25;;;;;;;;;;7356491;19;20030;-80
2022/09/25 22:01:06;;;;;;;14.18;6.35;;;;;;;;;;7334482;19;20908;-84
2022/09/25 22:03:32;;;;;;;12.80;5.75;;;;;;;;;;7300781;19;20034;-80
2022/09/25 22:06:02;;;;;;;11.90;5.38;;;;;;;;;;7343023;19;20009;-81
2022/09/25 22:08:27;;;;;;;14.38;5.22;;;;;;;;;;7355487;19;20039;-81
2022/09/25 22:10:56;;;;;;;11.20;5.13;;;;;;;;;;7344260;19;20873;-82
2022/09/25 22:13:22;;;;;;;12.52;4.75;;;;;;;;;;7356901;19;20018;-81
2022/09/25 22:15:47;;;;;;;10.77;4.28;;;;;;;;;;7360983;19;20125;-80
2022/09/25 22:18:12;;;;;;;12.27;4.70;;;;;;;;;;7337206;19;20882;-80
2022/09/25 22:20:37;;;;;;;16.35;5.55;;;;;;;;;;7339747;19;20006;-81
2022/09/25 22:23:02;;;;;;;15.88;6.07;;;;;;;;;;7356977;19;20007;-80
2022/09/25 22:25:28;;;;;;;14.00;5.60;;;;;;;;;;7359629;19;20698;-77
2022/09/25 22:27:53;;;;;;;10.73;5.77;;;;;;;;;;7360126;19;20034;-79
2022/09/25 22:30:18;;;;;;;11.17;5.77;;;;;;;;;;7357051;19;20263;-79
2022/09/25 22:32:43;;;;;;;12.32;6.20;;;;;;;;;;7359850;19;20345;-79
2022/09/25 22:35:09;;;;;;;13.13;6.18;;;;;;;;;;7337941;19;19999;-80
2022/09/25 22:37:35;;;;;;;15.00;5.82;;;;;;;;;;7353107;19;20014;-79
2022/09/25 22:40:01;;;;;;;9.45;4.90;;;;;;;;;;7357545;19;20013;-80
2022/09/25 22:42:26;;;;;;;16.00;5.47;;;;;;;;;;7358230;19;20010;-79
2022/09/25 22:44:51;;;;;;;11.75;5.18;;;;;;;;;;7351559;19;20003;-80
2022/09/25 22:47:16;;;;;;;12.55;5.00;;;;;;;;;;7363542;19;20766;-82
2022/09/25 22:49:41;;;;;;;11.05;4.97;;;;;;;;;;7365592;19;20493;-82
2022/09/25 22:52:06;;;;;;;13.80;4.87;;;;;;;;;;7355647;19;20017;-79
2022/09/25 22:54:32;;;;;;;10.30;4.63;;;;;;;;;;7342483;19;20286;-83
2022/09/25 22:56:57;;;;;;;13.10;5.13;;;;;;;;;;7362011;19;20865;-83
2022/09/25 22:59:22;;;;;;;13.00;5.10;;;;;;;;;;7360463;19;20365;-82
2022/09/25 23:01:51;;;;;;;8.93;3.87;;;;;;;;;;7363875;19;20263;-80
2022/09/25 23:04:18;;;;;;;12.32;5.60;;;;;;;;;;7330226;19;20913;-80
2022/09/25 23:06:43;;;;;;;11.30;4.55;;;;;;;;;;7348280;19;20014;-82
2022/09/25 23:09:19;;;;;;;7.60;2.90;;;;;;;;;;7344746;19;20013;-79
2022/09/25 23:11:44;;;;;;;13.27;3.80;;;;;;;;;;7335277;19;20122;-80
2022/09/25 23:14:13;;;;;;;10.57;4.00;;;;;;;;;;7325060;19;20669;-81
2022/09/25 23:16:38;;;;;;;14.18;5.60;;;;;;;;;;7333815;19;20885;-79
2022/09/25 23:19:03;;;;;;;11.40;6.40;;;;;;;;;;7343389;19;20015;-78
2022/09/25 23:21:29;;;;;;;11.20;5.68;;;;;;;;;;7342575;19;20588;-78
2022/09/25 23:23:55;;;;;;;14.60;6.20;;;;;;;;;;7349369;19;20011;-81
2022/09/25 23:26:20;;;;;;;10.00;4.63;;;;;;;;;;7348506;19;20335;-80
2022/09/25 23:28:45;;;;;;;10.33;5.10;;;;;;;;;;7329134;19;20017;-80
2022/09/25 23:31:12;;;;;;;8.50;3.73;;;;;;;;;;7342171;19;20256;-78
2022/09/25 23:33:38;;;;;;;8.10;3.35;;;;;;;;;;7347725;19;21309;-80
2022/09/25 23:36:23;;;;;;;6.82;3.75;;;;;;;;;;7346608;19;20022;-80
2022/09/25 23:38:50;;;;;;;11.30;4.32;;;;;;;;;;7351365;19;20042;-83
2022/09/25 23:41:25;;;;;;;12.25;4.57;;;;;;;;;;7351121;19;20881;-82
2022/09/25 23:43:51;;;;;;;9.63;3.92;;;;;;;;;;7352863;19;20010;-82
2022/09/25 23:46:17;;;;;;;10.90;4.38;;;;;;;;;;7348563;19;20010;-79
2022/09/25 23:48:43;;;;;;;14.55;4.80;;;;;;;;;;7331040;19;20357;-79
2022/09/25 23:51:08;;;;;;;9.70;4.60;;;;;;;;;;7346336;19;20003;-82
2022/09/25 23:53:34;;;;;;;12.50;5.32;;;;;;;;;;7350867;19;20007;-82
2022/09/25 23:56:06;;;;;;;10.85;5.30;;;;;;;;;;7357773;19;20442;-80
2022/09/25 23:58:32;;;;;;;11.35;4.63;;;;;;;;;;7340913;19;20062;-82
